Flight Track Log - Related Links

Times and Time Zones

All times are in EDT time to prevent confusion due to time zone crossing. See the UAL5911 flight status page for this flight to view local times or setup timezone preferences in your user account.

Time Position Orientation Groundspeed Altitude Reporting Facility
EDT Latitude Longitude Course Direction KTS MPH feet Rate Location/Type
Sat 03:35:10 PM 40.7497 -89.7472 357° North 223 257 6,000  Level Chicago Center
Sat 03:36:00 PM 40.8285 -89.6476 North  Level FlightAware Approximate
Sat 03:36:11 PM 40.8119 -89.7064 26° Northeast 249 287 9,300  Level Chicago Center
Sat 03:37:00 PM 40.8882 -89.6357 North  Level FlightAware Approximate
Sat 03:37:13 PM 40.8664 -89.6256 48° Northeast 280 322 11,000  Level Chicago Center
Sat 03:38:00 PM 40.9479 -89.6255 11° North  Level FlightAware Approximate
Sat 03:38:14 PM 40.9336 -89.5253 48° Northeast 336 387 11,000  Level Chicago Center
Sat 03:39:00 PM 41.0069 -89.6088 14° North  Level FlightAware Approximate
Sat 03:39:16 PM 41.0008 -89.4258 48° Northeast 358 412 11,000  Level Chicago Center
Sat 03:40:17 PM 41.0667 -89.3267 49° Northeast 359 413 11,000  Level Chicago Center
Sat 03:41:19 PM 41.1478 -89.2036 49° Northeast 366 421 11,000  Level Chicago Center
Sat 03:42:20 PM 41.2144 -89.1031 49° Northeast 373 429 11,000  Level Chicago Center
Sat 03:43:22 PM 41.2814 -88.9981 50° Northeast 374 430 11,000  Level Chicago Center
Sat 03:44:23 PM 41.3489 -88.8950 49° Northeast 372 428 11,000  Level Chicago Center
Sat 03:45:25 PM 41.4136 -88.7881 51° Northeast 371 427 11,000  Level Chicago Center
Sat 03:46:26 PM 41.4778 -88.6808 51° Northeast 372 428 11,000  Level Chicago Center
Sat 03:47:28 PM 41.5547 -88.5531 51° Northeast 370 426 11,000  Level Chicago Center
Sat 03:48:29 PM 41.6186 -88.4456 51° Northeast 369 425 11,000  Level Chicago Center
Sat 03:49:31 PM 41.6822 -88.3394 51° Northeast 366 421 11,000  Level Chicago Center
Sat 03:50:32 PM 41.7450 -88.2314 52° Northeast 366 421 11,000 -293 Level Chicago Center
Sat 03:51:34 PM 41.7983 -88.1406 52° Northeast 308 354 10,400 -1,065 Descending Chicago Center
Sat 03:52:36 PM 41.8442 -88.0600 53° Northeast 275 316 8,800 -1,571 Descending Chicago Center
Sat 03:53:40 PM 41.8833 -87.9500 64° Northeast 283 326 7,100 -871 Descending Chicago TRACON
Sat 03:54:40 PM 41.8833 -87.8500 90° East 247 284 7,000 -750 Descending Chicago TRACON
Sat 03:55:40 PM 41.8833 -87.7667 90° East 228 262 5,600 -1,190 Descending Chicago TRACON
Sat 03:56:46 PM 41.9167 -87.7000 56° Northeast 219 252 4,500 -1,190 Descending Chicago TRACON
Sat 03:57:46 PM 41.9500 -87.7500 312° West 206 237 3,100 -1,400 Descending Chicago TRACON

Login

Don't have an account? Register now (free) for customized features, flight alerts, and more!